Point Perpendicular, Australia

11:32 PM AEDT on December 05, 2016 (GMT +1100)
Callala Bay, Gowlland Cr | | Change Station

Elev 43 ft 34.99 °S, 150.72 °E | Updated 0 second ago

Light Rain
Light Rain
65.1 °F
Feels Like 65.1 °F
N
3.4
Wind Variable Wind from NW
Gusts 4.0 mph

Today
High -- | Low -- °F
--% Chance of Precip.
Yesterday
High -- | Low -- °F
Precip. -- in
Pressure 29.95 in
Visibility 5.6 miles
Clouds Scattered Clouds 900 ft
Mostly Cloudy 1100 ft
Dew Point 62 °F
Humidity 88%
Rainfall 0.25 in
Snow Depth Not available.
5:35 AM 7:59 PM
Waxing Crescent, 31% visible
SPECI YSNW 051200Z 30006KT 9000 -RA SCT009 BKN011 18/18 Q1014 FM1230 31008KT 9999 -RA FEW010 BKN020 INTER 1200/1300 4000 SHRA BKN010
Pressure 29.95 in
Visibility 5.6 miles
Clouds Scattered Clouds 900 ft
Mostly Cloudy 1100 ft
Dew Point 62 °F
Humidity 88%
Rainfall 0.25 in
Snow Depth Not available.
5:35 AM 7:59 PM
Waxing Crescent, 31% visible
SPECI YSNW 051200Z 30006KT 9000 -RA SCT009 BKN011 18/18 Q1014 FM1230 31008KT 9999 -RA FEW010 BKN020 INTER 1200/1300 4000 SHRA BKN010

10-Day Weather Forecast

×

Almanac

Astronomy

Dec. 05, 2016 Rise Set
Actual Time
Civil Twilight
Nautical Twilight
Astronomical Twilight
Moon
Length of Visible Light
Length of Day
Tomorrow will be .
, % of the Moon is Illuminated

Today's Extremes

Country Highs Country Lows

Community

WunderPhotos

Upload Photos

1,955,777 photos uploaded!

WunderBlog® & News

Nearby

Air Quality

  Air Quality AQ Index Pollutant
Not available.

Snow Depth

Station Depth Elevation

Earthquake Activity

City Distance Mag. Time & Date
Minimum magnitude displayed is 2.5.

Coastal Water Temperatures

Place Temperature

Stations

Nearby Weather Stations

Station Location Temp. Windchill Dew Point Humidity Wind Precip. Elev Updated Type